Hauptseite
METAR-TAF:

METAR-TAF

Flughäfen :

Flughafen Ioannina

Ioannina, Griechenland

Breite: 39-41-47N, Länge: 20-49-21E, Höhe: 475 m

Beobachtung

Neuester Wetterbericht von vor 35 Minuten, um 01:20 UTC
Wind 2 kt aus unterschiedlichen Richtungen
Temperatur -1°C
Luftfeuchtigkeit 93%
Luftdruck 1021 hPa

METAR: LGIO 240120Z AUTO VRB02KT //// // ////// M01/M02 Q1021 RE//

Zeit: 03:55 (01:55 UTC)

Prognose

Neuester Wetterbericht von vor 2 Stunden und 55 Minuten, um 23:00 UTC
Gültige Prognose vom 24 um 00 UTC bis 24 um 09 UTC
Wind 3 kt aus unterschiedlichen Richtungen
Sichtweite 10 km oder mehr
keine Wolken unter 1500 m und keine Kumulonimbus oder Gewitterwolken

TAF: LGIO 232300Z 2400/2409 VRB03KT CAVOK

Wetterbeobachtungen und Prognosen von mehr als 4000 Flughäfen (METAR und TAF Bericht).

Die verfügbaren Stationen werden durch gelbe und rote Markierungen auf der Karte dargestellt.

Führen Sie die Maus auf sie, um den Namen der Station zu sehen.

Darauf klicken, um die Beobachtung von Wetterbeobachtungen und Prognosen zu sehen.

Um die Karte zu ändern : klicken Sie auf den grünen Tasten mit einem schwarzen Kreuz Zum Vergrößern, auf den grünen Button mit einem Gedankenstrich zu verkleinern, oder auf die grünen Pfeile für benachbarte Karten.


METAR-TAF: